sensor_id;sensor_type;location;lat;lon;timestamp;temperature;humidity
12289;DHT22;6207;49.308;7.336;2022-12-07T00:01:20;2.60;1.00
12289;DHT22;6207;49.308;7.336;2022-12-07T00:03:49;2.60;1.00
12289;DHT22;6207;49.308;7.336;2022-12-07T00:06:18;2.60;1.00
12289;DHT22;6207;49.308;7.336;2022-12-07T00:08:46;2.60;1.00
12289;DHT22;6207;49.308;7.336;2022-12-07T00:11:18;2.50;1.00
12289;DHT22;6207;49.308;7.336;2022-12-07T00:13:46;2.50;1.00
12289;DHT22;6207;49.308;7.336;2022-12-07T00:16:18;2.60;1.00
12289;DHT22;6207;49.308;7.336;2022-12-07T00:18:45;2.50;1.00
12289;DHT22;6207;49.308;7.336;2022-12-07T00:21:32;2.50;1.00
12289;DHT22;6207;49.308;7.336;2022-12-07T00:24:00;2.40;1.00
12289;DHT22;6207;49.308;7.336;2022-12-07T00:26:29;2.40;1.00
12289;DHT22;6207;49.308;7.336;2022-12-07T00:29:03;2.40;1.00
12289;DHT22;6207;49.308;7.336;2022-12-07T00:31:33;2.40;1.00
12289;DHT22;6207;49.308;7.336;2022-12-07T00:34:01;2.40;1.00
12289;DHT22;6207;49.308;7.336;2022-12-07T00:36:28;2.50;1.00
12289;DHT22;6207;49.308;7.336;2022-12-07T00:38:57;2.50;1.00
12289;DHT22;6207;49.308;7.336;2022-12-07T00:41:26;2.50;1.00
12289;DHT22;6207;49.308;7.336;2022-12-07T00:43:53;2.50;1.00
12289;DHT22;6207;49.308;7.336;2022-12-07T00:46:22;2.50;1.00
12289;DHT22;6207;49.308;7.336;2022-12-07T00:48:50;2.50;1.00
12289;DHT22;6207;49.308;7.336;2022-12-07T00:51:19;2.50;1.00
12289;DHT22;6207;49.308;7.336;2022-12-07T00:53:46;2.50;1.00
12289;DHT22;6207;49.308;7.336;2022-12-07T00:56:27;2.50;1.00
12289;DHT22;6207;49.308;7.336;2022-12-07T00:58:57;2.40;1.00
12289;DHT22;6207;49.308;7.336;2022-12-07T01:01:26;2.50;1.00
12289;DHT22;6207;49.308;7.336;2022-12-07T01:03:53;2.40;1.00
12289;DHT22;6207;49.308;7.336;2022-12-07T01:06:22;2.40;1.00
12289;DHT22;6207;49.308;7.336;2022-12-07T01:08:49;2.50;1.00
12289;DHT22;6207;49.308;7.336;2022-12-07T01:11:19;2.50;1.00
12289;DHT22;6207;49.308;7.336;2022-12-07T01:13:46;2.40;1.00
12289;DHT22;6207;49.308;7.336;2022-12-07T01:16:15;2.40;1.00
12289;DHT22;6207;49.308;7.336;2022-12-07T01:18:45;2.50;1.00
12289;DHT22;6207;49.308;7.336;2022-12-07T01:21:17;2.40;1.00
12289;DHT22;6207;49.308;7.336;2022-12-07T01:23:44;2.40;1.00
12289;DHT22;6207;49.308;7.336;2022-12-07T01:26:13;2.40;1.00
12289;DHT22;6207;49.308;7.336;2022-12-07T01:28:41;2.40;1.00
12289;DHT22;6207;49.308;7.336;2022-12-07T01:31:10;2.40;1.00
12289;DHT22;6207;49.308;7.336;2022-12-07T01:33:39;2.40;1.00
12289;DHT22;6207;49.308;7.336;2022-12-07T01:36:22;2.40;1.00
12289;DHT22;6207;49.308;7.336;2022-12-07T01:38:51;2.40;1.00
12289;DHT22;6207;49.308;7.336;2022-12-07T01:41:20;2.40;1.00
12289;DHT22;6207;49.308;7.336;2022-12-07T01:44:14;2.40;1.00
12289;DHT22;6207;49.308;7.336;2022-12-07T01:54:34;2.40;1.00
12289;DHT22;6207;49.308;7.336;2022-12-07T01:57:03;2.40;1.00
12289;DHT22;6207;49.308;7.336;2022-12-07T01:59:31;2.40;1.00
12289;DHT22;6207;49.308;7.336;2022-12-07T02:01:58;2.40;1.00
12289;DHT22;6207;49.308;7.336;2022-12-07T02:04:25;2.40;1.00
12289;DHT22;6207;49.308;7.336;2022-12-07T02:06:52;2.30;1.00
12289;DHT22;6207;49.308;7.336;2022-12-07T02:09:19;2.40;1.00
12289;DHT22;6207;49.308;7.336;2022-12-07T02:11:46;2.40;1.00
12289;DHT22;6207;49.308;7.336;2022-12-07T02:14:13;2.40;1.00
12289;DHT22;6207;49.308;7.336;2022-12-07T02:17:07;2.40;1.00
12289;DHT22;6207;49.308;7.336;2022-12-07T02:25:27;2.40;1.00
12289;DHT22;6207;49.308;7.336;2022-12-07T02:28:29;2.40;1.00
12289;DHT22;6207;49.308;7.336;2022-12-07T02:31:01;2.40;1.00
12289;DHT22;6207;49.308;7.336;2022-12-07T02:33:52;2.40;1.00
12289;DHT22;6207;49.308;7.336;2022-12-07T02:36:27;2.40;1.00
12289;DHT22;6207;49.308;7.336;2022-12-07T02:39:17;2.40;1.00
12289;DHT22;6207;49.308;7.336;2022-12-07T02:41:53;2.40;1.00
12289;DHT22;6207;49.308;7.336;2022-12-07T02:44:24;2.40;1.00
12289;DHT22;6207;49.308;7.336;2022-12-07T02:46:59;2.40;1.00
12289;DHT22;6207;49.308;7.336;2022-12-07T02:49:28;2.40;1.00
12289;DHT22;6207;49.308;7.336;2022-12-07T02:51:55;2.40;1.00
12289;DHT22;6207;49.308;7.336;2022-12-07T02:54:22;2.40;1.00
12289;DHT22;6207;49.308;7.336;2022-12-07T02:59:34;2.40;1.00
12289;DHT22;6207;49.308;7.336;2022-12-07T03:10:19;2.40;1.00
12289;DHT22;6207;49.308;7.336;2022-12-07T03:13:15;2.40;1.00
12289;DHT22;6207;49.308;7.336;2022-12-07T03:18:24;2.50;1.00
12289;DHT22;6207;49.308;7.336;2022-12-07T03:20:55;2.40;1.00
12289;DHT22;6207;49.308;7.336;2022-12-07T03:23:25;2.50;1.00
12289;DHT22;6207;49.308;7.336;2022-12-07T03:25:56;2.50;1.00
12289;DHT22;6207;49.308;7.336;2022-12-07T03:28:31;2.50;1.00
12289;DHT22;6207;49.308;7.336;2022-12-07T03:31:04;2.50;1.00
12289;DHT22;6207;49.308;7.336;2022-12-07T03:36:08;2.50;1.00
12289;DHT22;6207;49.308;7.336;2022-12-07T03:38:45;2.50;1.00
12289;DHT22;6207;49.308;7.336;2022-12-07T03:41:22;2.50;1.00
12289;DHT22;6207;49.308;7.336;2022-12-07T03:43:50;2.50;1.00
12289;DHT22;6207;49.308;7.336;2022-12-07T03:46:37;2.50;1.00
12289;DHT22;6207;49.308;7.336;2022-12-07T03:49:16;2.50;1.00
12289;DHT22;6207;49.308;7.336;2022-12-07T03:52:04;2.50;1.00
12289;DHT22;6207;49.308;7.336;2022-12-07T03:54:39;2.50;1.00
12289;DHT22;6207;49.308;7.336;2022-12-07T03:57:06;2.60;1.00
12289;DHT22;6207;49.308;7.336;2022-12-07T03:59:36;2.60;1.00
12289;DHT22;6207;49.308;7.336;2022-12-07T04:02:05;2.60;1.00
12289;DHT22;6207;49.308;7.336;2022-12-07T04:04:33;2.60;1.00
12289;DHT22;6207;49.308;7.336;2022-12-07T04:07:00;2.60;1.00
12289;DHT22;6207;49.308;7.336;2022-12-07T04:09:27;2.60;1.00
12289;DHT22;6207;49.308;7.336;2022-12-07T04:11:54;2.60;1.00
12289;DHT22;6207;49.308;7.336;2022-12-07T04:14:20;2.60;1.00
12289;DHT22;6207;49.308;7.336;2022-12-07T04:16:53;2.60;1.00
12289;DHT22;6207;49.308;7.336;2022-12-07T04:19:25;2.70;1.00
12289;DHT22;6207;49.308;7.336;2022-12-07T04:21:53;2.70;1.00
12289;DHT22;6207;49.308;7.336;2022-12-07T04:24:20;2.60;1.00
12289;DHT22;6207;49.308;7.336;2022-12-07T04:26:47;2.70;1.00
12289;DHT22;6207;49.308;7.336;2022-12-07T04:29:15;2.30;1.00
12289;DHT22;6207;49.308;7.336;2022-12-07T04:31:42;2.70;1.00
12289;DHT22;6207;49.308;7.336;2022-12-07T04:34:10;2.60;1.00
12289;DHT22;6207;49.308;7.336;2022-12-07T04:36:38;2.70;1.00
12289;DHT22;6207;49.308;7.336;2022-12-07T04:39:06;2.70;1.00
12289;DHT22;6207;49.308;7.336;2022-12-07T04:41:32;2.70;1.00
12289;DHT22;6207;49.308;7.336;2022-12-07T04:44:02;2.70;1.00
12289;DHT22;6207;49.308;7.336;2022-12-07T04:46:30;2.70;1.00
12289;DHT22;6207;49.308;7.336;2022-12-07T04:48:57;2.70;1.00
12289;DHT22;6207;49.308;7.336;2022-12-07T04:51:26;2.60;1.00
12289;DHT22;6207;49.308;7.336;2022-12-07T04:53:54;2.70;1.00
12289;DHT22;6207;49.308;7.336;2022-12-07T04:56:22;2.70;1.00
12289;DHT22;6207;49.308;7.336;2022-12-07T04:58:50;2.70;1.00
12289;DHT22;6207;49.308;7.336;2022-12-07T05:01:18;2.70;1.00
12289;DHT22;6207;49.308;7.336;2022-12-07T05:03:45;2.70;1.00
12289;DHT22;6207;49.308;7.336;2022-12-07T05:06:13;2.70;1.00
12289;DHT22;6207;49.308;7.336;2022-12-07T05:08:40;2.70;1.00
12289;DHT22;6207;49.308;7.336;2022-12-07T05:11:07;2.70;1.00
12289;DHT22;6207;49.308;7.336;2022-12-07T05:13:34;2.70;1.00
12289;DHT22;6207;49.308;7.336;2022-12-07T05:16:02;2.70;1.00
12289;DHT22;6207;49.308;7.336;2022-12-07T05:18:29;2.70;1.00
12289;DHT22;6207;49.308;7.336;2022-12-07T05:20:55;2.70;1.00
12289;DHT22;6207;49.308;7.336;2022-12-07T05:23:22;2.70;1.00
12289;DHT22;6207;49.308;7.336;2022-12-07T05:25:49;2.70;1.00
12289;DHT22;6207;49.308;7.336;2022-12-07T05:28:16;2.80;1.00
12289;DHT22;6207;49.308;7.336;2022-12-07T05:30:42;2.70;1.00
12289;DHT22;6207;49.308;7.336;2022-12-07T05:33:09;2.70;1.00
12289;DHT22;6207;49.308;7.336;2022-12-07T05:35:36;2.70;1.00
12289;DHT22;6207;49.308;7.336;2022-12-07T05:38:04;2.70;1.00
12289;DHT22;6207;49.308;7.336;2022-12-07T05:40:31;2.70;1.00
12289;DHT22;6207;49.308;7.336;2022-12-07T05:42:57;2.70;1.00
12289;DHT22;6207;49.308;7.336;2022-12-07T05:45:30;2.70;1.00
12289;DHT22;6207;49.308;7.336;2022-12-07T05:47:57;2.80;1.00
12289;DHT22;6207;49.308;7.336;2022-12-07T05:50:24;2.80;1.00
12289;DHT22;6207;49.308;7.336;2022-12-07T05:52:51;2.80;1.00
12289;DHT22;6207;49.308;7.336;2022-12-07T05:55:17;2.80;1.00
12289;DHT22;6207;49.308;7.336;2022-12-07T05:57:44;2.80;1.00
12289;DHT22;6207;49.308;7.336;2022-12-07T06:00:31;2.80;1.00
12289;DHT22;6207;49.308;7.336;2022-12-07T06:02:57;2.80;1.00
12289;DHT22;6207;49.308;7.336;2022-12-07T06:05:24;2.80;1.00
12289;DHT22;6207;49.308;7.336;2022-12-07T06:07:51;2.80;1.00
12289;DHT22;6207;49.308;7.336;2022-12-07T06:10:18;2.80;1.00
12289;DHT22;6207;49.308;7.336;2022-12-07T06:12:45;2.80;1.00
12289;DHT22;6207;49.308;7.336;2022-12-07T06:15:12;2.80;1.00
12289;DHT22;6207;49.308;7.336;2022-12-07T06:17:40;2.80;1.00
12289;DHT22;6207;49.308;7.336;2022-12-07T06:20:07;2.80;1.00
12289;DHT22;6207;49.308;7.336;2022-12-07T06:22:34;2.80;1.00
12289;DHT22;6207;49.308;7.336;2022-12-07T06:25:01;2.80;1.00
12289;DHT22;6207;49.308;7.336;2022-12-07T06:27:34;2.80;1.00
12289;DHT22;6207;49.308;7.336;2022-12-07T06:30:02;2.80;1.00
12289;DHT22;6207;49.308;7.336;2022-12-07T06:32:33;2.80;1.00
12289;DHT22;6207;49.308;7.336;2022-12-07T06:35:00;2.80;1.00
12289;DHT22;6207;49.308;7.336;2022-12-07T06:37:44;2.80;1.00
12289;DHT22;6207;49.308;7.336;2022-12-07T06:40:11;2.80;1.00
12289;DHT22;6207;49.308;7.336;2022-12-07T06:42:40;2.80;1.00
12289;DHT22;6207;49.308;7.336;2022-12-07T06:45:08;2.80;1.00
12289;DHT22;6207;49.308;7.336;2022-12-07T06:47:34;2.80;1.00
12289;DHT22;6207;49.308;7.336;2022-12-07T06:50:08;2.80;1.00
12289;DHT22;6207;49.308;7.336;2022-12-07T06:52:34;2.80;1.00
12289;DHT22;6207;49.308;7.336;2022-12-07T06:55:01;2.80;1.00
12289;DHT22;6207;49.308;7.336;2022-12-07T06:57:28;2.80;1.00
12289;DHT22;6207;49.308;7.336;2022-12-07T06:59:54;2.80;1.00
12289;DHT22;6207;49.308;7.336;2022-12-07T07:02:21;2.80;1.00
12289;DHT22;6207;49.308;7.336;2022-12-07T07:04:48;2.80;1.00
12289;DHT22;6207;49.308;7.336;2022-12-07T07:07:15;2.80;1.00
12289;DHT22;6207;49.308;7.336;2022-12-07T07:09:41;2.80;1.00
12289;DHT22;6207;49.308;7.336;2022-12-07T07:12:08;3.20;1.00
12289;DHT22;6207;49.308;7.336;2022-12-07T07:14:35;2.80;1.00
12289;DHT22;6207;49.308;7.336;2022-12-07T07:17:02;2.80;1.00
12289;DHT22;6207;49.308;7.336;2022-12-07T07:19:29;2.80;1.00
12289;DHT22;6207;49.308;7.336;2022-12-07T07:21:56;2.80;1.00
12289;DHT22;6207;49.308;7.336;2022-12-07T07:24:23;2.90;1.00
12289;DHT22;6207;49.308;7.336;2022-12-07T07:26:50;2.80;1.00
12289;DHT22;6207;49.308;7.336;2022-12-07T07:29:16;2.80;1.00
12289;DHT22;6207;49.308;7.336;2022-12-07T07:31:43;2.80;1.00
12289;DHT22;6207;49.308;7.336;2022-12-07T07:34:10;2.80;1.00
12289;DHT22;6207;49.308;7.336;2022-12-07T07:36:37;2.80;1.00
12289;DHT22;6207;49.308;7.336;2022-12-07T07:39:04;3.40;1.00
12289;DHT22;6207;49.308;7.336;2022-12-07T07:41:31;2.80;1.00
12289;DHT22;6207;49.308;7.336;2022-12-07T07:43:58;2.80;1.00
12289;DHT22;6207;49.308;7.336;2022-12-07T07:46:24;2.80;1.00
12289;DHT22;6207;49.308;7.336;2022-12-07T07:48:51;2.80;1.00
12289;DHT22;6207;49.308;7.336;2022-12-07T07:51:18;2.90;1.00
12289;DHT22;6207;49.308;7.336;2022-12-07T07:53:44;2.90;1.00
12289;DHT22;6207;49.308;7.336;2022-12-07T07:56:11;3.40;1.00
12289;DHT22;6207;49.308;7.336;2022-12-07T07:58:38;3.50;1.00
12289;DHT22;6207;49.308;7.336;2022-12-07T08:01:06;2.90;1.00
12289;DHT22;6207;49.308;7.336;2022-12-07T08:03:33;3.00;1.00
12289;DHT22;6207;49.308;7.336;2022-12-07T08:06:02;3.00;1.00
12289;DHT22;6207;49.308;7.336;2022-12-07T08:08:29;3.00;1.00
12289;DHT22;6207;49.308;7.336;2022-12-07T08:10:56;3.00;1.00
12289;DHT22;6207;49.308;7.336;2022-12-07T08:13:22;3.10;1.00
12289;DHT22;6207;49.308;7.336;2022-12-07T08:15:56;3.10;1.00
12289;DHT22;6207;49.308;7.336;2022-12-07T08:18:23;3.10;1.00
12289;DHT22;6207;49.308;7.336;2022-12-07T08:20:50;3.10;1.00
12289;DHT22;6207;49.308;7.336;2022-12-07T08:23:16;3.20;1.00
12289;DHT22;6207;49.308;7.336;2022-12-07T08:25:43;3.20;1.00
12289;DHT22;6207;49.308;7.336;2022-12-07T08:28:09;3.20;1.00
12289;DHT22;6207;49.308;7.336;2022-12-07T08:30:36;3.30;1.00
12289;DHT22;6207;49.308;7.336;2022-12-07T08:33:03;3.30;1.00
12289;DHT22;6207;49.308;7.336;2022-12-07T08:35:33;3.30;1.00
12289;DHT22;6207;49.308;7.336;2022-12-07T08:38:00;3.30;1.00
12289;DHT22;6207;49.308;7.336;2022-12-07T08:40:28;3.30;1.00
12289;DHT22;6207;49.308;7.336;2022-12-07T08:42:55;3.30;1.00
12289;DHT22;6207;49.308;7.336;2022-12-07T08:45:22;3.30;1.00
12289;DHT22;6207;49.308;7.336;2022-12-07T08:50:19;3.30;1.00
12289;DHT22;6207;49.308;7.336;2022-12-07T08:52:53;3.30;1.00
12289;DHT22;6207;49.308;7.336;2022-12-07T08:55:21;3.30;1.00
12289;DHT22;6207;49.308;7.336;2022-12-07T08:57:48;3.40;1.00
12289;DHT22;6207;49.308;7.336;2022-12-07T09:00:15;3.30;1.00
12289;DHT22;6207;49.308;7.336;2022-12-07T09:02:44;3.40;1.00
12289;DHT22;6207;49.308;7.336;2022-12-07T09:05:12;3.30;1.00
12289;DHT22;6207;49.308;7.336;2022-12-07T09:07:44;3.40;1.00
12289;DHT22;6207;49.308;7.336;2022-12-07T09:10:12;3.30;1.00
12289;DHT22;6207;49.308;7.336;2022-12-07T09:12:39;3.30;1.00
12289;DHT22;6207;49.308;7.336;2022-12-07T09:15:06;3.50;1.00
12289;DHT22;6207;49.308;7.336;2022-12-07T09:17:34;3.30;1.00
12289;DHT22;6207;49.308;7.336;2022-12-07T09:20:04;3.40;1.00
12289;DHT22;6207;49.308;7.336;2022-12-07T09:22:31;3.50;1.00
12289;DHT22;6207;49.308;7.336;2022-12-07T09:24:59;3.50;1.00
12289;DHT22;6207;49.308;7.336;2022-12-07T09:27:26;3.50;1.00
12289;DHT22;6207;49.308;7.336;2022-12-07T09:29:53;3.60;1.00
12289;DHT22;6207;49.308;7.336;2022-12-07T09:32:20;3.60;1.00
12289;DHT22;6207;49.308;7.336;2022-12-07T09:34:47;3.60;1.00
12289;DHT22;6207;49.308;7.336;2022-12-07T09:37:14;3.60;1.00
12289;DHT22;6207;49.308;7.336;2022-12-07T09:39:41;3.50;1.00
12289;DHT22;6207;49.308;7.336;2022-12-07T09:42:26;3.50;1.00
12289;DHT22;6207;49.308;7.336;2022-12-07T09:44:54;3.50;1.00
12289;DHT22;6207;49.308;7.336;2022-12-07T09:47:21;3.50;1.00
12289;DHT22;6207;49.308;7.336;2022-12-07T09:49:48;3.40;1.00
12289;DHT22;6207;49.308;7.336;2022-12-07T09:52:26;3.40;1.00
12289;DHT22;6207;49.308;7.336;2022-12-07T09:54:53;3.30;1.00
12289;DHT22;6207;49.308;7.336;2022-12-07T09:57:32;3.30;1.00
12289;DHT22;6207;49.308;7.336;2022-12-07T10:00:06;3.40;1.00
12289;DHT22;6207;49.308;7.336;2022-12-07T10:02:43;3.40;1.00
12289;DHT22;6207;49.308;7.336;2022-12-07T10:05:20;3.40;1.00
12289;DHT22;6207;49.308;7.336;2022-12-07T10:07:50;3.50;1.00
12289;DHT22;6207;49.308;7.336;2022-12-07T10:10:32;3.50;1.00
12289;DHT22;6207;49.308;7.336;2022-12-07T10:13:06;3.60;1.00
12289;DHT22;6207;49.308;7.336;2022-12-07T10:18:38;3.60;1.00
12289;DHT22;6207;49.308;7.336;2022-12-07T10:23:37;3.60;1.00
12289;DHT22;6207;49.308;7.336;2022-12-07T10:26:31;3.60;1.00
12289;DHT22;6207;49.308;7.336;2022-12-07T10:29:31;3.70;1.00
12289;DHT22;6207;49.308;7.336;2022-12-07T10:32:02;3.80;1.00
12289;DHT22;6207;49.308;7.336;2022-12-07T10:34:31;3.70;1.00
12289;DHT22;6207;49.308;7.336;2022-12-07T10:39:53;3.80;1.00
12289;DHT22;6207;49.308;7.336;2022-12-07T10:42:29;3.80;1.00
12289;DHT22;6207;49.308;7.336;2022-12-07T11:03:30;4.00;1.00
12289;DHT22;6207;49.308;7.336;2022-12-07T11:09:04;4.10;1.00
12289;DHT22;6207;49.308;7.336;2022-12-07T11:11:41;4.10;1.00
12289;DHT22;6207;49.308;7.336;2022-12-07T11:14:31;4.20;1.00
12289;DHT22;6207;49.308;7.336;2022-12-07T11:17:31;4.30;1.00
12289;DHT22;6207;49.308;7.336;2022-12-07T11:20:11;4.20;1.00
12289;DHT22;6207;49.308;7.336;2022-12-07T11:26:06;4.40;1.00
12289;DHT22;6207;49.308;7.336;2022-12-07T11:28:52;4.30;1.00
12289;DHT22;6207;49.308;7.336;2022-12-07T11:31:38;4.40;1.00
12289;DHT22;6207;49.308;7.336;2022-12-07T11:36:49;4.40;1.00
12289;DHT22;6207;49.308;7.336;2022-12-07T11:39:28;4.40;1.00
12289;DHT22;6207;49.308;7.336;2022-12-07T11:42:10;4.50;1.00
12289;DHT22;6207;49.308;7.336;2022-12-07T11:50:33;4.50;99.90
12289;DHT22;6207;49.308;7.336;2022-12-07T11:56:09;4.50;99.90
12289;DHT22;6207;49.308;7.336;2022-12-07T11:58:48;4.40;99.90
12289;DHT22;6207;49.308;7.336;2022-12-07T12:01:35;4.40;99.90
12289;DHT22;6207;49.308;7.336;2022-12-07T12:04:13;4.40;99.90
12289;DHT22;6207;49.308;7.336;2022-12-07T12:06:45;4.40;99.90
12289;DHT22;6207;49.308;7.336;2022-12-07T12:09:12;4.40;99.90
12289;DHT22;6207;49.308;7.336;2022-12-07T12:20:32;4.50;99.90
12289;DHT22;6207;49.308;7.336;2022-12-07T12:23:10;4.50;99.90
12289;DHT22;6207;49.308;7.336;2022-12-07T12:25:51;4.50;99.90
12289;DHT22;6207;49.308;7.336;2022-12-07T12:33:35;4.50;99.90
12289;DHT22;6207;49.308;7.336;2022-12-07T12:36:24;4.40;99.90
12289;DHT22;6207;49.308;7.336;2022-12-07T13:02:22;4.60;99.90
12289;DHT22;6207;49.308;7.336;2022-12-07T13:23:57;4.50;52.50
12289;DHT22;6207;49.308;7.336;2022-12-07T13:26:41;4.40;85.60
12289;DHT22;6207;49.308;7.336;2022-12-07T13:29:21;4.40;93.20
12289;DHT22;6207;49.308;7.336;2022-12-07T13:31:57;4.40;99.90
12289;DHT22;6207;49.308;7.336;2022-12-07T13:34:36;4.40;99.90
12289;DHT22;6207;49.308;7.336;2022-12-07T13:37:25;4.40;99.90
12289;DHT22;6207;49.308;7.336;2022-12-07T13:39:55;4.40;99.90
12289;DHT22;6207;49.308;7.336;2022-12-07T13:42:29;4.30;99.90
12289;DHT22;6207;49.308;7.336;2022-12-07T13:44:58;4.30;99.90
12289;DHT22;6207;49.308;7.336;2022-12-07T13:49:54;4.30;76.30
12289;DHT22;6207;49.308;7.336;2022-12-07T13:52:24;4.30;97.70
12289;DHT22;6207;49.308;7.336;2022-12-07T13:57:33;4.20;94.10
12289;DHT22;6207;49.308;7.336;2022-12-07T14:00:03;4.20;44.00
12289;DHT22;6207;49.308;7.336;2022-12-07T14:02:32;4.30;70.60
12289;DHT22;6207;49.308;7.336;2022-12-07T14:05:25;4.20;49.30
12289;DHT22;6207;49.308;7.336;2022-12-07T14:07:58;4.20;1.00
12289;DHT22;6207;49.308;7.336;2022-12-07T14:15:54;4.30;1.00
12289;DHT22;6207;49.308;7.336;2022-12-07T14:18:37;4.20;1.00
12289;DHT22;6207;49.308;7.336;2022-12-07T14:21:05;4.20;1.00
12289;DHT22;6207;49.308;7.336;2022-12-07T14:23:32;4.20;1.00
12289;DHT22;6207;49.308;7.336;2022-12-07T14:26:12;4.20;1.00
12289;DHT22;6207;49.308;7.336;2022-12-07T14:28:41;4.20;1.00
12289;DHT22;6207;49.308;7.336;2022-12-07T14:31:13;4.20;1.00
12289;DHT22;6207;49.308;7.336;2022-12-07T14:33:51;4.20;1.00
12289;DHT22;6207;49.308;7.336;2022-12-07T14:36:18;4.10;1.00
12289;DHT22;6207;49.308;7.336;2022-12-07T14:38:45;4.10;1.00
12289;DHT22;6207;49.308;7.336;2022-12-07T14:41:17;4.10;1.00
12289;DHT22;6207;49.308;7.336;2022-12-07T14:44:10;4.10;1.00
12289;DHT22;6207;49.308;7.336;2022-12-07T14:46:57;4.20;2.30
12289;DHT22;6207;49.308;7.336;2022-12-07T14:49:44;4.10;11.70
12289;DHT22;6207;49.308;7.336;2022-12-07T14:52:16;4.10;2.50
12289;DHT22;6207;49.308;7.336;2022-12-07T14:55:04;4.20;16.90
12289;DHT22;6207;49.308;7.336;2022-12-07T14:57:31;4.20;23.80
12289;DHT22;6207;49.308;7.336;2022-12-07T14:59:58;4.10;10.90
12289;DHT22;6207;49.308;7.336;2022-12-07T15:02:25;4.10;1.00
12289;DHT22;6207;49.308;7.336;2022-12-07T15:04:52;4.10;7.30
12289;DHT22;6207;49.308;7.336;2022-12-07T15:07:20;4.00;1.00
12289;DHT22;6207;49.308;7.336;2022-12-07T15:09:48;4.00;1.00
12289;DHT22;6207;49.308;7.336;2022-12-07T15:12:14;4.00;1.00
12289;DHT22;6207;49.308;7.336;2022-12-07T15:14:41;4.00;1.00
12289;DHT22;6207;49.308;7.336;2022-12-07T15:17:11;4.00;1.00
12289;DHT22;6207;49.308;7.336;2022-12-07T15:19:53;3.90;1.00
12289;DHT22;6207;49.308;7.336;2022-12-07T15:22:20;3.90;1.00
12289;DHT22;6207;49.308;7.336;2022-12-07T15:24:47;3.90;1.70
12289;DHT22;6207;49.308;7.336;2022-12-07T15:27:13;3.90;6.30
12289;DHT22;6207;49.308;7.336;2022-12-07T15:29:40;3.90;1.00
12289;DHT22;6207;49.308;7.336;2022-12-07T15:32:07;3.90;7.70
12289;DHT22;6207;49.308;7.336;2022-12-07T15:34:33;3.90;45.50
12289;DHT22;6207;49.308;7.336;2022-12-07T15:37:06;3.90;27.90
12289;DHT22;6207;49.308;7.336;2022-12-07T15:39:33;3.90;46.30
12289;DHT22;6207;49.308;7.336;2022-12-07T15:42:01;3.80;33.60
12289;DHT22;6207;49.308;7.336;2022-12-07T15:44:28;3.80;15.00
12289;DHT22;6207;49.308;7.336;2022-12-07T15:47:13;4.70;32.90
12289;DHT22;6207;49.308;7.336;2022-12-07T15:49:40;3.80;41.80
12289;DHT22;6207;49.308;7.336;2022-12-07T15:52:06;3.80;92.70
12289;DHT22;6207;49.308;7.336;2022-12-07T15:54:33;3.70;95.60
12289;DHT22;6207;49.308;7.336;2022-12-07T15:57:00;3.70;99.90
12289;DHT22;6207;49.308;7.336;2022-12-07T15:59:27;3.60;87.10
12289;DHT22;6207;49.308;7.336;2022-12-07T16:01:54;3.60;99.90
12289;DHT22;6207;49.308;7.336;2022-12-07T16:04:21;3.60;99.90
12289;DHT22;6207;49.308;7.336;2022-12-07T16:06:48;3.60;99.90
12289;DHT22;6207;49.308;7.336;2022-12-07T16:09:17;3.50;99.90
12289;DHT22;6207;49.308;7.336;2022-12-07T16:11:44;3.50;99.90
12289;DHT22;6207;49.308;7.336;2022-12-07T16:14:11;3.50;99.90
12289;DHT22;6207;49.308;7.336;2022-12-07T16:16:37;3.50;99.90
12289;DHT22;6207;49.308;7.336;2022-12-07T16:19:07;3.50;99.90
12289;DHT22;6207;49.308;7.336;2022-12-07T16:21:34;3.50;93.10
12289;DHT22;6207;49.308;7.336;2022-12-07T16:24:02;3.50;46.30
12289;DHT22;6207;49.308;7.336;2022-12-07T16:26:29;3.50;81.20
12289;DHT22;6207;49.308;7.336;2022-12-07T16:28:56;3.50;91.90
12289;DHT22;6207;49.308;7.336;2022-12-07T16:31:25;3.50;77.60
12289;DHT22;6207;49.308;7.336;2022-12-07T16:33:56;3.50;91.60
12289;DHT22;6207;49.308;7.336;2022-12-07T16:36:24;3.50;94.50
12289;DHT22;6207;49.308;7.336;2022-12-07T16:39:12;3.50;99.90
12289;DHT22;6207;49.308;7.336;2022-12-07T16:41:39;3.50;99.90
12289;DHT22;6207;49.308;7.336;2022-12-07T16:44:09;3.40;99.90
12289;DHT22;6207;49.308;7.336;2022-12-07T16:46:36;3.50;99.90
12289;DHT22;6207;49.308;7.336;2022-12-07T16:49:03;3.40;99.90
12289;DHT22;6207;49.308;7.336;2022-12-07T16:51:30;3.40;99.90
12289;DHT22;6207;49.308;7.336;2022-12-07T16:53:57;3.40;99.90
12289;DHT22;6207;49.308;7.336;2022-12-07T16:56:25;3.40;99.90
12289;DHT22;6207;49.308;7.336;2022-12-07T16:58:53;3.40;99.90
12289;DHT22;6207;49.308;7.336;2022-12-07T17:01:21;3.40;99.90
12289;DHT22;6207;49.308;7.336;2022-12-07T17:03:50;3.40;99.90
12289;DHT22;6207;49.308;7.336;2022-12-07T17:06:25;3.40;99.90
12289;DHT22;6207;49.308;7.336;2022-12-07T17:08:52;3.30;99.90
12289;DHT22;6207;49.308;7.336;2022-12-07T17:11:24;3.30;99.90
12289;DHT22;6207;49.308;7.336;2022-12-07T17:13:51;3.30;99.90
12289;DHT22;6207;49.308;7.336;2022-12-07T17:16:37;3.30;99.90
12289;DHT22;6207;49.308;7.336;2022-12-07T17:19:09;3.30;99.90
12289;DHT22;6207;49.308;7.336;2022-12-07T17:21:36;3.30;99.90
12289;DHT22;6207;49.308;7.336;2022-12-07T17:24:05;3.20;99.90
12289;DHT22;6207;49.308;7.336;2022-12-07T17:26:33;3.30;99.90
12289;DHT22;6207;49.308;7.336;2022-12-07T17:29:05;3.30;99.90
12289;DHT22;6207;49.308;7.336;2022-12-07T17:31:32;3.30;99.90
12289;DHT22;6207;49.308;7.336;2022-12-07T17:33:59;3.30;99.90
12289;DHT22;6207;49.308;7.336;2022-12-07T17:36:28;3.20;99.90
12289;DHT22;6207;49.308;7.336;2022-12-07T17:38:56;3.30;99.90
12289;DHT22;6207;49.308;7.336;2022-12-07T17:41:25;3.20;99.90
12289;DHT22;6207;49.308;7.336;2022-12-07T17:44:16;3.20;99.90
12289;DHT22;6207;49.308;7.336;2022-12-07T17:46:44;3.20;99.90
12289;DHT22;6207;49.308;7.336;2022-12-07T17:49:11;3.20;99.90
12289;DHT22;6207;49.308;7.336;2022-12-07T17:51:38;3.10;99.90
12289;DHT22;6207;49.308;7.336;2022-12-07T17:54:23;3.70;99.90
12289;DHT22;6207;49.308;7.336;2022-12-07T17:56:50;3.10;99.90
12289;DHT22;6207;49.308;7.336;2022-12-07T17:59:16;3.10;99.90
12289;DHT22;6207;49.308;7.336;2022-12-07T18:01:44;3.10;99.90
12289;DHT22;6207;49.308;7.336;2022-12-07T18:04:11;3.10;99.90
12289;DHT22;6207;49.308;7.336;2022-12-07T18:06:38;3.10;99.90
12289;DHT22;6207;49.308;7.336;2022-12-07T18:09:05;3.10;99.90
12289;DHT22;6207;49.308;7.336;2022-12-07T18:11:33;3.10;99.90
12289;DHT22;6207;49.308;7.336;2022-12-07T18:14:00;3.10;99.90
12289;DHT22;6207;49.308;7.336;2022-12-07T18:16:28;3.10;99.90
12289;DHT22;6207;49.308;7.336;2022-12-07T18:19:03;3.10;99.90
12289;DHT22;6207;49.308;7.336;2022-12-07T18:21:31;3.10;99.90
12289;DHT22;6207;49.308;7.336;2022-12-07T18:24:00;3.10;99.90
12289;DHT22;6207;49.308;7.336;2022-12-07T18:26:29;3.10;99.90
12289;DHT22;6207;49.308;7.336;2022-12-07T18:28:59;3.00;99.90
12289;DHT22;6207;49.308;7.336;2022-12-07T18:31:26;3.00;99.90
12289;DHT22;6207;49.308;7.336;2022-12-07T18:33:52;3.00;99.90
12289;DHT22;6207;49.308;7.336;2022-12-07T18:36:22;3.00;99.90
12289;DHT22;6207;49.308;7.336;2022-12-07T18:38:49;2.90;99.90
12289;DHT22;6207;49.308;7.336;2022-12-07T18:41:16;3.00;99.90
12289;DHT22;6207;49.308;7.336;2022-12-07T18:43:43;3.00;99.90
12289;DHT22;6207;49.308;7.336;2022-12-07T18:46:14;3.00;99.90
12289;DHT22;6207;49.308;7.336;2022-12-07T18:48:41;2.90;99.90
12289;DHT22;6207;49.308;7.336;2022-12-07T18:51:10;3.50;99.90
12289;DHT22;6207;49.308;7.336;2022-12-07T18:53:37;3.00;99.90
12289;DHT22;6207;49.308;7.336;2022-12-07T18:56:07;2.90;99.90
12289;DHT22;6207;49.308;7.336;2022-12-07T18:58:34;2.90;99.90